sensor_id;sensor_type;location;lat;lon;timestamp;P1;durP1;ratioP1;P2;durP2;ratioP2
4971;SDS011;2501;51.214;6.768;2023-06-14T00:00:18;10.40;;;5.70;;
4971;SDS011;2501;51.214;6.768;2023-06-14T00:02:47;14.60;;;6.00;;
4971;SDS011;2501;51.214;6.768;2023-06-14T00:05:16;8.68;;;5.80;;
4971;SDS011;2501;51.214;6.768;2023-06-14T00:07:44;6.78;;;5.70;;
4971;SDS011;2501;51.214;6.768;2023-06-14T00:10:13;11.37;;;5.67;;
4971;SDS011;2501;51.214;6.768;2023-06-14T00:12:45;8.50;;;5.90;;
4971;SDS011;2501;51.214;6.768;2023-06-14T00:15:13;9.98;;;5.03;;
4971;SDS011;2501;51.214;6.768;2023-06-14T00:17:42;5.97;;;5.40;;
4971;SDS011;2501;51.214;6.768;2023-06-14T00:20:12;12.75;;;6.30;;
4971;SDS011;2501;51.214;6.768;2023-06-14T00:22:41;8.77;;;6.30;;
4971;SDS011;2501;51.214;6.768;2023-06-14T00:25:10;10.48;;;5.63;;
4971;SDS011;2501;51.214;6.768;2023-06-14T00:27:38;6.78;;;5.50;;
4971;SDS011;2501;51.214;6.768;2023-06-14T00:30:10;8.32;;;5.80;;
4971;SDS011;2501;51.214;6.768;2023-06-14T00:32:39;9.57;;;5.35;;
4971;SDS011;2501;51.214;6.768;2023-06-14T00:35:08;8.00;;;6.20;;
4971;SDS011;2501;51.214;6.768;2023-06-14T00:37:36;6.05;;;5.55;;
4971;SDS011;2501;51.214;6.768;2023-06-14T00:40:05;9.90;;;5.45;;
4971;SDS011;2501;51.214;6.768;2023-06-14T00:42:34;9.13;;;5.80;;
4971;SDS011;2501;51.214;6.768;2023-06-14T00:45:04;6.05;;;5.18;;
4971;SDS011;2501;51.214;6.768;2023-06-14T00:47:35;8.63;;;6.40;;
4971;SDS011;2501;51.214;6.768;2023-06-14T00:50:07;8.27;;;5.70;;
4971;SDS011;2501;51.214;6.768;2023-06-14T00:52:36;9.53;;;5.50;;
4971;SDS011;2501;51.214;6.768;2023-06-14T00:55:06;7.70;;;5.93;;
4971;SDS011;2501;51.214;6.768;2023-06-14T00:57:34;6.70;;;5.60;;
4971;SDS011;2501;51.214;6.768;2023-06-14T01:00:05;10.95;;;5.40;;
4971;SDS011;2501;51.214;6.768;2023-06-14T01:02:39;6.18;;;5.57;;
4971;SDS011;2501;51.214;6.768;2023-06-14T01:05:08;8.48;;;6.30;;
4971;SDS011;2501;51.214;6.768;2023-06-14T01:07:43;8.83;;;5.77;;
4971;SDS011;2501;51.214;6.768;2023-06-14T01:10:29;7.60;;;5.95;;
4971;SDS011;2501;51.214;6.768;2023-06-14T01:13:03;6.20;;;5.60;;
4971;SDS011;2501;51.214;6.768;2023-06-14T01:15:35;6.27;;;5.60;;
4971;SDS011;2501;51.214;6.768;2023-06-14T01:18:08;13.55;;;6.10;;
4971;SDS011;2501;51.214;6.768;2023-06-14T01:20:42;6.70;;;6.10;;
4971;SDS011;2501;51.214;6.768;2023-06-14T01:23:17;7.22;;;5.60;;
4971;SDS011;2501;51.214;6.768;2023-06-14T01:25:46;5.97;;;5.35;;
4971;SDS011;2501;51.214;6.768;2023-06-14T01:28:18;11.40;;;5.82;;
4971;SDS011;2501;51.214;6.768;2023-06-14T01:30:48;11.20;;;6.25;;
4971;SDS011;2501;51.214;6.768;2023-06-14T01:33:21;9.07;;;5.90;;
4971;SDS011;2501;51.214;6.768;2023-06-14T01:35:51;9.98;;;6.00;;
4971;SDS011;2501;51.214;6.768;2023-06-14T01:38:24;9.38;;;6.18;;
4971;SDS011;2501;51.214;6.768;2023-06-14T01:40:54;8.15;;;5.80;;
4971;SDS011;2501;51.214;6.768;2023-06-14T01:43:26;16.27;;;6.20;;
4971;SDS011;2501;51.214;6.768;2023-06-14T01:45:57;8.95;;;5.30;;
4971;SDS011;2501;51.214;6.768;2023-06-14T01:48:27;12.20;;;6.35;;
4971;SDS011;2501;51.214;6.768;2023-06-14T01:50:55;6.25;;;5.65;;
4971;SDS011;2501;51.214;6.768;2023-06-14T01:53:26;8.18;;;5.70;;
4971;SDS011;2501;51.214;6.768;2023-06-14T01:55:55;9.60;;;6.00;;
4971;SDS011;2501;51.214;6.768;2023-06-14T01:58:24;6.80;;;6.05;;
4971;SDS011;2501;51.214;6.768;2023-06-14T02:00:52;6.68;;;5.97;;
4971;SDS011;2501;51.214;6.768;2023-06-14T02:03:23;9.82;;;6.20;;
4971;SDS011;2501;51.214;6.768;2023-06-14T02:05:52;8.52;;;6.10;;
4971;SDS011;2501;51.214;6.768;2023-06-14T02:08:21;8.55;;;5.53;;
4971;SDS011;2501;51.214;6.768;2023-06-14T02:10:52;10.50;;;5.73;;
4971;SDS011;2501;51.214;6.768;2023-06-14T02:13:21;16.55;;;6.20;;
4971;SDS011;2501;51.214;6.768;2023-06-14T02:15:49;14.73;;;6.30;;
4971;SDS011;2501;51.214;6.768;2023-06-14T02:18:19;9.25;;;6.50;;
4971;SDS011;2501;51.214;6.768;2023-06-14T02:20:48;6.18;;;5.45;;
4971;SDS011;2501;51.214;6.768;2023-06-14T02:23:16;7.63;;;5.65;;
4971;SDS011;2501;51.214;6.768;2023-06-14T02:25:44;6.32;;;5.32;;
4971;SDS011;2501;51.214;6.768;2023-06-14T02:28:16;7.15;;;6.07;;
4971;SDS011;2501;51.214;6.768;2023-06-14T02:30:44;9.98;;;6.22;;
4971;SDS011;2501;51.214;6.768;2023-06-14T02:33:13;7.82;;;5.75;;
4971;SDS011;2501;51.214;6.768;2023-06-14T02:35:42;9.85;;;5.80;;
4971;SDS011;2501;51.214;6.768;2023-06-14T02:38:11;9.07;;;6.00;;
4971;SDS011;2501;51.214;6.768;2023-06-14T02:40:39;10.13;;;5.88;;
4971;SDS011;2501;51.214;6.768;2023-06-14T02:43:08;6.85;;;5.47;;
4971;SDS011;2501;51.214;6.768;2023-06-14T02:45:39;6.00;;;5.40;;
4971;SDS011;2501;51.214;6.768;2023-06-14T02:48:08;8.98;;;6.25;;
4971;SDS011;2501;51.214;6.768;2023-06-14T02:50:36;9.57;;;6.00;;
4971;SDS011;2501;51.214;6.768;2023-06-14T02:53:05;7.77;;;6.03;;
4971;SDS011;2501;51.214;6.768;2023-06-14T02:55:33;7.82;;;5.80;;
4971;SDS011;2501;51.214;6.768;2023-06-14T02:58:04;9.60;;;5.90;;
4971;SDS011;2501;51.214;6.768;2023-06-14T03:00:33;11.35;;;5.68;;
4971;SDS011;2501;51.214;6.768;2023-06-14T03:03:06;8.05;;;5.93;;
4971;SDS011;2501;51.214;6.768;2023-06-14T03:05:37;6.07;;;5.47;;
4971;SDS011;2501;51.214;6.768;2023-06-14T03:08:06;10.77;;;5.50;;
4971;SDS011;2501;51.214;6.768;2023-06-14T03:10:34;9.40;;;5.65;;
4971;SDS011;2501;51.214;6.768;2023-06-14T03:13:04;12.02;;;5.63;;
4971;SDS011;2501;51.214;6.768;2023-06-14T03:15:33;13.73;;;6.20;;
4971;SDS011;2501;51.214;6.768;2023-06-14T03:18:01;8.52;;;5.97;;
4971;SDS011;2501;51.214;6.768;2023-06-14T03:20:33;12.50;;;6.63;;
4971;SDS011;2501;51.214;6.768;2023-06-14T03:23:01;7.85;;;5.90;;
4971;SDS011;2501;51.214;6.768;2023-06-14T03:25:30;6.07;;;5.47;;
4971;SDS011;2501;51.214;6.768;2023-06-14T03:28:00;7.10;;;5.50;;
4971;SDS011;2501;51.214;6.768;2023-06-14T03:30:29;7.95;;;6.07;;
4971;SDS011;2501;51.214;6.768;2023-06-14T03:32:58;7.35;;;5.43;;
4971;SDS011;2501;51.214;6.768;2023-06-14T03:35:27;10.25;;;5.57;;
4971;SDS011;2501;51.214;6.768;2023-06-14T03:37:58;10.80;;;5.80;;
4971;SDS011;2501;51.214;6.768;2023-06-14T03:40:27;8.63;;;5.38;;
4971;SDS011;2501;51.214;6.768;2023-06-14T03:42:56;9.82;;;5.47;;
4971;SDS011;2501;51.214;6.768;2023-06-14T03:45:25;8.90;;;5.40;;
4971;SDS011;2501;51.214;6.768;2023-06-14T03:47:53;5.90;;;5.30;;
4971;SDS011;2501;51.214;6.768;2023-06-14T03:50:23;9.13;;;5.53;;
4971;SDS011;2501;51.214;6.768;2023-06-14T03:52:52;13.98;;;5.40;;
4971;SDS011;2501;51.214;6.768;2023-06-14T03:55:23;8.85;;;5.70;;
4971;SDS011;2501;51.214;6.768;2023-06-14T03:57:52;9.93;;;5.47;;
4971;SDS011;2501;51.214;6.768;2023-06-14T04:00:21;7.50;;;5.32;;
4971;SDS011;2501;51.214;6.768;2023-06-14T04:02:49;6.47;;;5.00;;
4971;SDS011;2501;51.214;6.768;2023-06-14T04:05:18;12.35;;;5.60;;
4971;SDS011;2501;51.214;6.768;2023-06-14T04:07:46;9.20;;;5.80;;
4971;SDS011;2501;51.214;6.768;2023-06-14T04:10:16;8.57;;;6.47;;
4971;SDS011;2501;51.214;6.768;2023-06-14T04:12:48;10.17;;;6.57;;
4971;SDS011;2501;51.214;6.768;2023-06-14T04:15:17;8.52;;;6.30;;
4971;SDS011;2501;51.214;6.768;2023-06-14T04:17:45;10.70;;;6.72;;
4971;SDS011;2501;51.214;6.768;2023-06-14T04:20:14;10.40;;;6.20;;
4971;SDS011;2501;51.214;6.768;2023-06-14T04:22:42;11.32;;;6.40;;
4971;SDS011;2501;51.214;6.768;2023-06-14T04:25:11;11.38;;;6.28;;
4971;SDS011;2501;51.214;6.768;2023-06-14T04:27:40;10.70;;;6.05;;
4971;SDS011;2501;51.214;6.768;2023-06-14T04:30:11;10.88;;;5.85;;
4971;SDS011;2501;51.214;6.768;2023-06-14T04:32:40;8.75;;;5.60;;
4971;SDS011;2501;51.214;6.768;2023-06-14T04:35:09;7.22;;;5.45;;
4971;SDS011;2501;51.214;6.768;2023-06-14T04:37:37;12.10;;;6.10;;
4971;SDS011;2501;51.214;6.768;2023-06-14T04:40:09;10.35;;;5.80;;
4971;SDS011;2501;51.214;6.768;2023-06-14T04:42:38;6.00;;;5.40;;
4971;SDS011;2501;51.214;6.768;2023-06-14T04:45:12;7.07;;;5.75;;
4971;SDS011;2501;51.214;6.768;2023-06-14T04:47:41;12.90;;;5.50;;
4971;SDS011;2501;51.214;6.768;2023-06-14T04:50:11;10.93;;;5.50;;
4971;SDS011;2501;51.214;6.768;2023-06-14T04:52:39;11.50;;;5.30;;
4971;SDS011;2501;51.214;6.768;2023-06-14T04:55:08;12.05;;;5.70;;
4971;SDS011;2501;51.214;6.768;2023-06-14T04:57:38;7.13;;;5.10;;
4971;SDS011;2501;51.214;6.768;2023-06-14T05:00:07;6.35;;;5.00;;
4971;SDS011;2501;51.214;6.768;2023-06-14T05:02:40;10.10;;;5.38;;
4971;SDS011;2501;51.214;6.768;2023-06-14T05:05:08;9.57;;;4.95;;
4971;SDS011;2501;51.214;6.768;2023-06-14T05:07:37;8.30;;;5.15;;
4971;SDS011;2501;51.214;6.768;2023-06-14T05:10:06;8.57;;;5.00;;
4971;SDS011;2501;51.214;6.768;2023-06-14T05:12:35;8.30;;;5.45;;
4971;SDS011;2501;51.214;6.768;2023-06-14T05:15:04;7.70;;;5.20;;
4971;SDS011;2501;51.214;6.768;2023-06-14T05:17:34;6.17;;;4.90;;
4971;SDS011;2501;51.214;6.768;2023-06-14T05:20:08;5.65;;;4.78;;
4971;SDS011;2501;51.214;6.768;2023-06-14T05:22:38;9.53;;;5.03;;
4971;SDS011;2501;51.214;6.768;2023-06-14T05:25:06;5.25;;;4.75;;
4971;SDS011;2501;51.214;6.768;2023-06-14T05:27:35;10.95;;;5.18;;
4971;SDS011;2501;51.214;6.768;2023-06-14T05:30:07;11.53;;;5.40;;
4971;SDS011;2501;51.214;6.768;2023-06-14T05:32:36;6.85;;;5.15;;
4971;SDS011;2501;51.214;6.768;2023-06-14T05:35:08;13.43;;;5.53;;
4971;SDS011;2501;51.214;6.768;2023-06-14T05:37:36;5.85;;;5.10;;
4971;SDS011;2501;51.214;6.768;2023-06-14T05:40:06;10.10;;;5.13;;
4971;SDS011;2501;51.214;6.768;2023-06-14T05:42:35;8.13;;;5.15;;
4971;SDS011;2501;51.214;6.768;2023-06-14T05:45:04;6.20;;;5.20;;
4971;SDS011;2501;51.214;6.768;2023-06-14T05:47:33;10.52;;;5.40;;
4971;SDS011;2501;51.214;6.768;2023-06-14T05:50:02;18.95;;;5.50;;
4971;SDS011;2501;51.214;6.768;2023-06-14T05:52:33;6.85;;;5.30;;
4971;SDS011;2501;51.214;6.768;2023-06-14T05:55:03;11.20;;;4.82;;
4971;SDS011;2501;51.214;6.768;2023-06-14T05:57:32;12.57;;;4.70;;
4971;SDS011;2501;51.214;6.768;2023-06-14T06:00:00;16.08;;;5.20;;
4971;SDS011;2501;51.214;6.768;2023-06-14T06:02:34;18.65;;;5.00;;
4971;SDS011;2501;51.214;6.768;2023-06-14T06:05:03;15.85;;;5.50;;
4971;SDS011;2501;51.214;6.768;2023-06-14T06:07:34;12.63;;;5.57;;
4971;SDS011;2501;51.214;6.768;2023-06-14T06:10:05;9.45;;;5.13;;
4971;SDS011;2501;51.214;6.768;2023-06-14T06:12:34;9.32;;;4.90;;
4971;SDS011;2501;51.214;6.768;2023-06-14T06:15:03;6.10;;;4.70;;
4971;SDS011;2501;51.214;6.768;2023-06-14T06:17:32;7.97;;;5.03;;
4971;SDS011;2501;51.214;6.768;2023-06-14T06:20:01;7.78;;;4.53;;
4971;SDS011;2501;51.214;6.768;2023-06-14T06:22:31;10.80;;;4.97;;
4971;SDS011;2501;51.214;6.768;2023-06-14T06:25:02;9.80;;;5.43;;
4971;SDS011;2501;51.214;6.768;2023-06-14T06:27:31;5.80;;;4.50;;
4971;SDS011;2501;51.214;6.768;2023-06-14T06:30:01;5.87;;;4.40;;
4971;SDS011;2501;51.214;6.768;2023-06-14T06:32:29;9.97;;;4.87;;
4971;SDS011;2501;51.214;6.768;2023-06-14T06:34:58;8.30;;;4.43;;
4971;SDS011;2501;51.214;6.768;2023-06-14T06:37:26;9.70;;;5.40;;
4971;SDS011;2501;51.214;6.768;2023-06-14T06:39:55;12.53;;;5.50;;
4971;SDS011;2501;51.214;6.768;2023-06-14T06:42:26;6.70;;;4.40;;
4971;SDS011;2501;51.214;6.768;2023-06-14T06:44:54;13.00;;;4.10;;
4971;SDS011;2501;51.214;6.768;2023-06-14T06:47:23;6.68;;;4.18;;
4971;SDS011;2501;51.214;6.768;2023-06-14T06:49:52;12.13;;;4.13;;
4971;SDS011;2501;51.214;6.768;2023-06-14T06:52:20;12.00;;;4.50;;
4971;SDS011;2501;51.214;6.768;2023-06-14T06:54:49;13.75;;;3.90;;
4971;SDS011;2501;51.214;6.768;2023-06-14T06:57:20;12.30;;;4.07;;
4971;SDS011;2501;51.214;6.768;2023-06-14T06:59:51;10.98;;;3.20;;
4971;SDS011;2501;51.214;6.768;2023-06-14T07:02:19;8.60;;;3.35;;
4971;SDS011;2501;51.214;6.768;2023-06-14T07:04:47;9.10;;;2.73;;
4971;SDS011;2501;51.214;6.768;2023-06-14T07:07:17;8.57;;;2.70;;
4971;SDS011;2501;51.214;6.768;2023-06-14T07:09:45;5.40;;;3.00;;
4971;SDS011;2501;51.214;6.768;2023-06-14T07:12:14;5.20;;;2.50;;
4971;SDS011;2501;51.214;6.768;2023-06-14T07:14:42;7.20;;;2.45;;
4971;SDS011;2501;51.214;6.768;2023-06-14T07:17:13;7.85;;;2.60;;
4971;SDS011;2501;51.214;6.768;2023-06-14T07:19:42;4.03;;;2.60;;
4971;SDS011;2501;51.214;6.768;2023-06-14T07:22:10;4.03;;;2.70;;
4971;SDS011;2501;51.214;6.768;2023-06-14T07:24:39;5.05;;;2.47;;
4971;SDS011;2501;51.214;6.768;2023-06-14T07:27:08;6.10;;;2.50;;
4971;SDS011;2501;51.214;6.768;2023-06-14T07:29:38;5.30;;;2.10;;
4971;SDS011;2501;51.214;6.768;2023-06-14T07:32:07;2.70;;;2.00;;
4971;SDS011;2501;51.214;6.768;2023-06-14T07:34:38;2.42;;;2.22;;
4971;SDS011;2501;51.214;6.768;2023-06-14T07:37:06;2.90;;;2.10;;
4971;SDS011;2501;51.214;6.768;2023-06-14T07:39:35;6.15;;;2.90;;
4971;SDS011;2501;51.214;6.768;2023-06-14T07:42:03;4.70;;;2.10;;
4971;SDS011;2501;51.214;6.768;2023-06-14T07:44:32;6.20;;;2.60;;
4971;SDS011;2501;51.214;6.768;2023-06-14T07:47:01;2.72;;;2.00;;
4971;SDS011;2501;51.214;6.768;2023-06-14T07:49:29;4.18;;;2.40;;
4971;SDS011;2501;51.214;6.768;2023-06-14T07:52:00;5.90;;;2.40;;
4971;SDS011;2501;51.214;6.768;2023-06-14T07:54:30;7.13;;;2.47;;
4971;SDS011;2501;51.214;6.768;2023-06-14T07:56:59;3.42;;;2.30;;
4971;SDS011;2501;51.214;6.768;2023-06-14T07:59:27;6.30;;;2.50;;
4971;SDS011;2501;51.214;6.768;2023-06-14T08:01:56;3.90;;;2.10;;
4971;SDS011;2501;51.214;6.768;2023-06-14T08:04:24;8.77;;;2.10;;
4971;SDS011;2501;51.214;6.768;2023-06-14T08:06:53;4.28;;;2.00;;
4971;SDS011;2501;51.214;6.768;2023-06-14T08:09:24;4.57;;;2.10;;
4971;SDS011;2501;51.214;6.768;2023-06-14T08:11:53;6.00;;;2.05;;
4971;SDS011;2501;51.214;6.768;2023-06-14T08:14:22;4.00;;;1.90;;
4971;SDS011;2501;51.214;6.768;2023-06-14T08:16:50;7.15;;;2.10;;
4971;SDS011;2501;51.214;6.768;2023-06-14T08:19:19;2.72;;;2.53;;
4971;SDS011;2501;51.214;6.768;2023-06-14T08:21:47;3.00;;;2.00;;
4971;SDS011;2501;51.214;6.768;2023-06-14T08:24:16;7.57;;;1.90;;
4971;SDS011;2501;51.214;6.768;2023-06-14T08:26:47;4.53;;;2.13;;
4971;SDS011;2501;51.214;6.768;2023-06-14T08:29:15;3.33;;;1.67;;
4971;SDS011;2501;51.214;6.768;2023-06-14T08:31:44;2.30;;;2.10;;
4971;SDS011;2501;51.214;6.768;2023-06-14T08:34:13;2.17;;;1.77;;
4971;SDS011;2501;51.214;6.768;2023-06-14T08:36:41;5.40;;;2.10;;
4971;SDS011;2501;51.214;6.768;2023-06-14T08:39:10;2.88;;;1.88;;
4971;SDS011;2501;51.214;6.768;2023-06-14T08:41:38;1.90;;;1.80;;
4971;SDS011;2501;51.214;6.768;2023-06-14T08:44:09;4.40;;;2.20;;
4971;SDS011;2501;51.214;6.768;2023-06-14T08:46:37;2.00;;;1.90;;
4971;SDS011;2501;51.214;6.768;2023-06-14T08:49:06;2.35;;;1.70;;
4971;SDS011;2501;51.214;6.768;2023-06-14T08:51:39;3.13;;;1.80;;
4971;SDS011;2501;51.214;6.768;2023-06-14T08:54:08;2.60;;;2.10;;
4971;SDS011;2501;51.214;6.768;2023-06-14T08:56:40;3.30;;;1.90;;
4971;SDS011;2501;51.214;6.768;2023-06-14T08:59:11;2.10;;;2.00;;
4971;SDS011;2501;51.214;6.768;2023-06-14T09:01:40;3.37;;;2.17;;
4971;SDS011;2501;51.214;6.768;2023-06-14T09:04:10;4.70;;;2.28;;
4971;SDS011;2501;51.214;6.768;2023-06-14T09:06:39;2.45;;;2.10;;
4971;SDS011;2501;51.214;6.768;2023-06-14T09:09:08;4.40;;;1.65;;
4971;SDS011;2501;51.214;6.768;2023-06-14T09:11:37;2.50;;;1.40;;
4971;SDS011;2501;51.214;6.768;2023-06-14T09:14:06;1.70;;;1.60;;
4971;SDS011;2501;51.214;6.768;2023-06-14T09:16:37;3.23;;;1.90;;
4971;SDS011;2501;51.214;6.768;2023-06-14T09:19:06;2.50;;;2.03;;
4971;SDS011;2501;51.214;6.768;2023-06-14T09:21:34;3.90;;;2.10;;
4971;SDS011;2501;51.214;6.768;2023-06-14T09:24:04;2.20;;;1.60;;
4971;SDS011;2501;51.214;6.768;2023-06-14T09:26:36;5.50;;;2.05;;
4971;SDS011;2501;51.214;6.768;2023-06-14T09:29:08;9.32;;;2.20;;
4971;SDS011;2501;51.214;6.768;2023-06-14T09:31:40;3.95;;;1.80;;
4971;SDS011;2501;51.214;6.768;2023-06-14T09:34:09;2.95;;;1.73;;
4971;SDS011;2501;51.214;6.768;2023-06-14T09:36:37;3.28;;;2.00;;
4971;SDS011;2501;51.214;6.768;2023-06-14T09:39:08;6.20;;;2.70;;
4971;SDS011;2501;51.214;6.768;2023-06-14T09:41:37;5.63;;;2.50;;
4971;SDS011;2501;51.214;6.768;2023-06-14T09:44:08;6.18;;;1.90;;
4971;SDS011;2501;51.214;6.768;2023-06-14T09:46:39;3.55;;;1.90;;
4971;SDS011;2501;51.214;6.768;2023-06-14T09:49:09;2.40;;;2.20;;
4971;SDS011;2501;51.214;6.768;2023-06-14T09:51:43;14.52;;;2.70;;
4971;SDS011;2501;51.214;6.768;2023-06-14T09:54:14;6.10;;;2.00;;
4971;SDS011;2501;51.214;6.768;2023-06-14T09:56:45;4.82;;;1.90;;
4971;SDS011;2501;51.214;6.768;2023-06-14T09:59:16;2.20;;;2.03;;
4971;SDS011;2501;51.214;6.768;2023-06-14T10:01:54;4.15;;;2.05;;
4971;SDS011;2501;51.214;6.768;2023-06-14T10:04:28;4.40;;;1.90;;
4971;SDS011;2501;51.214;6.768;2023-06-14T10:06:59;2.00;;;1.90;;
4971;SDS011;2501;51.214;6.768;2023-06-14T10:09:28;4.38;;;1.90;;
4971;SDS011;2501;51.214;6.768;2023-06-14T10:11:58;3.42;;;2.38;;
4971;SDS011;2501;51.214;6.768;2023-06-14T10:14:26;4.93;;;2.10;;
4971;SDS011;2501;51.214;6.768;2023-06-14T10:17:00;3.00;;;2.10;;
4971;SDS011;2501;51.214;6.768;2023-06-14T10:19:34;10.90;;;2.50;;
4971;SDS011;2501;51.214;6.768;2023-06-14T10:22:09;4.63;;;2.30;;
4971;SDS011;2501;51.214;6.768;2023-06-14T10:24:43;7.20;;;2.15;;
4971;SDS011;2501;51.214;6.768;2023-06-14T10:27:13;3.10;;;2.20;;
4971;SDS011;2501;51.214;6.768;2023-06-14T10:32:38;4.18;;;1.80;;
4971;SDS011;2501;51.214;6.768;2023-06-14T10:35:35;3.70;;;2.03;;
4971;SDS011;2501;51.214;6.768;2023-06-14T10:38:07;1.90;;;1.70;;
4971;SDS011;2501;51.214;6.768;2023-06-14T10:40:36;2.30;;;2.10;;
4971;SDS011;2501;51.214;6.768;2023-06-14T10:48:43;9.20;;;2.08;;
4971;SDS011;2501;51.214;6.768;2023-06-14T10:51:15;7.80;;;1.88;;
4971;SDS011;2501;51.214;6.768;2023-06-14T10:53:46;6.00;;;2.00;;
4971;SDS011;2501;51.214;6.768;2023-06-14T10:56:29;6.10;;;2.00;;
4971;SDS011;2501;51.214;6.768;2023-06-14T10:58:58;10.63;;;2.33;;
4971;SDS011;2501;51.214;6.768;2023-06-14T11:01:37;2.30;;;1.90;;
4971;SDS011;2501;51.214;6.768;2023-06-14T11:04:12;4.50;;;1.88;;
4971;SDS011;2501;51.214;6.768;2023-06-14T11:06:45;3.17;;;1.90;;
4971;SDS011;2501;51.214;6.768;2023-06-14T11:09:32;2.37;;;2.17;;
4971;SDS011;2501;51.214;6.768;2023-06-14T11:12:15;2.00;;;1.80;;
4971;SDS011;2501;51.214;6.768;2023-06-14T11:14:45;3.10;;;1.90;;
4971;SDS011;2501;51.214;6.768;2023-06-14T11:17:15;3.20;;;1.70;;
4971;SDS011;2501;51.214;6.768;2023-06-14T11:19:46;2.00;;;1.80;;
4971;SDS011;2501;51.214;6.768;2023-06-14T11:22:15;8.10;;;2.60;;
4971;SDS011;2501;51.214;6.768;2023-06-14T11:24:43;2.30;;;2.20;;
4971;SDS011;2501;51.214;6.768;2023-06-14T11:27:12;5.68;;;2.30;;
4971;SDS011;2501;51.214;6.768;2023-06-14T11:29:47;3.10;;;2.20;;
4971;SDS011;2501;51.214;6.768;2023-06-14T11:32:16;3.40;;;1.80;;
4971;SDS011;2501;51.214;6.768;2023-06-14T11:34:48;5.85;;;2.28;;
4971;SDS011;2501;51.214;6.768;2023-06-14T11:37:20;2.45;;;2.35;;
4971;SDS011;2501;51.214;6.768;2023-06-14T11:39:50;2.70;;;1.95;;
4971;SDS011;2501;51.214;6.768;2023-06-14T11:42:18;2.10;;;2.00;;
4971;SDS011;2501;51.214;6.768;2023-06-14T11:44:46;1.70;;;1.60;;
4971;SDS011;2501;51.214;6.768;2023-06-14T11:47:15;4.30;;;2.10;;
4971;SDS011;2501;51.214;6.768;2023-06-14T11:49:44;2.97;;;2.13;;
4971;SDS011;2501;51.214;6.768;2023-06-14T11:52:15;7.10;;;2.30;;
4971;SDS011;2501;51.214;6.768;2023-06-14T11:54:44;3.70;;;2.00;;
4971;SDS011;2501;51.214;6.768;2023-06-14T11:57:17;5.22;;;2.10;;
4971;SDS011;2501;51.214;6.768;2023-06-14T11:59:46;1.90;;;1.70;;
4971;SDS011;2501;51.214;6.768;2023-06-14T12:02:15;8.45;;;2.00;;
4971;SDS011;2501;51.214;6.768;2023-06-14T12:04:46;2.37;;;2.00;;
4971;SDS011;2501;51.214;6.768;2023-06-14T12:07:18;5.70;;;2.20;;
4971;SDS011;2501;51.214;6.768;2023-06-14T12:12:34;2.03;;;1.73;;
4971;SDS011;2501;51.214;6.768;2023-06-14T12:15:05;5.65;;;1.70;;
4971;SDS011;2501;51.214;6.768;2023-06-14T12:17:36;2.20;;;2.10;;
4971;SDS011;2501;51.214;6.768;2023-06-14T12:20:08;4.55;;;1.80;;
4971;SDS011;2501;51.214;6.768;2023-06-14T12:22:50;3.20;;;1.73;;
4971;SDS011;2501;51.214;6.768;2023-06-14T12:25:26;5.68;;;2.08;;
4971;SDS011;2501;51.214;6.768;2023-06-14T12:27:56;2.20;;;1.80;;
4971;SDS011;2501;51.214;6.768;2023-06-14T12:30:25;2.60;;;1.80;;
4971;SDS011;2501;51.214;6.768;2023-06-14T12:32:53;1.80;;;1.70;;
4971;SDS011;2501;51.214;6.768;2023-06-14T12:35:22;9.23;;;1.90;;
4971;SDS011;2501;51.214;6.768;2023-06-14T12:37:53;2.20;;;1.70;;
4971;SDS011;2501;51.214;6.768;2023-06-14T12:40:21;4.68;;;2.08;;
4971;SDS011;2501;51.214;6.768;2023-06-14T12:42:50;4.30;;;1.67;;
4971;SDS011;2501;51.214;6.768;2023-06-14T12:45:19;5.10;;;1.63;;
4971;SDS011;2501;51.214;6.768;2023-06-14T12:47:48;1.83;;;1.63;;
4971;SDS011;2501;51.214;6.768;2023-06-14T12:50:16;3.80;;;1.80;;
4971;SDS011;2501;51.214;6.768;2023-06-14T12:52:45;3.38;;;2.05;;
4971;SDS011;2501;51.214;6.768;2023-06-14T12:55:16;2.60;;;1.90;;
4971;SDS011;2501;51.214;6.768;2023-06-14T12:57:45;4.38;;;1.50;;
4971;SDS011;2501;51.214;6.768;2023-06-14T13:00:15;1.88;;;1.77;;
4971;SDS011;2501;51.214;6.768;2023-06-14T13:02:46;6.25;;;1.70;;
4971;SDS011;2501;51.214;6.768;2023-06-14T13:05:15;2.08;;;1.83;;
4971;SDS011;2501;51.214;6.768;2023-06-14T13:07:44;5.60;;;2.30;;
4971;SDS011;2501;51.214;6.768;2023-06-14T13:10:12;1.98;;;1.80;;
4971;SDS011;2501;51.214;6.768;2023-06-14T13:12:43;2.40;;;1.73;;
4971;SDS011;2501;51.214;6.768;2023-06-14T13:15:12;4.30;;;1.80;;
4971;SDS011;2501;51.214;6.768;2023-06-14T13:17:40;5.50;;;1.90;;
4971;SDS011;2501;51.214;6.768;2023-06-14T13:20:13;5.60;;;1.50;;
4971;SDS011;2501;51.214;6.768;2023-06-14T13:22:42;5.13;;;1.77;;
4971;SDS011;2501;51.214;6.768;2023-06-14T13:25:11;2.00;;;1.90;;
4971;SDS011;2501;51.214;6.768;2023-06-14T13:27:39;2.00;;;1.90;;
4971;SDS011;2501;51.214;6.768;2023-06-14T13:30:11;1.90;;;1.70;;
4971;SDS011;2501;51.214;6.768;2023-06-14T13:32:40;3.72;;;1.80;;
4971;SDS011;2501;51.214;6.768;2023-06-14T13:35:08;2.20;;;2.00;;
4971;SDS011;2501;51.214;6.768;2023-06-14T13:37:37;2.60;;;2.17;;
4971;SDS011;2501;51.214;6.768;2023-06-14T13:40:06;2.97;;;1.83;;
4971;SDS011;2501;51.214;6.768;2023-06-14T13:42:35;4.68;;;2.08;;
4971;SDS011;2501;51.214;6.768;2023-06-14T13:45:04;5.10;;;2.15;;
4971;SDS011;2501;51.214;6.768;2023-06-14T13:47:35;3.00;;;2.03;;
4971;SDS011;2501;51.214;6.768;2023-06-14T13:50:04;2.60;;;2.30;;
4971;SDS011;2501;51.214;6.768;2023-06-14T13:52:34;5.05;;;2.08;;
4971;SDS011;2501;51.214;6.768;2023-06-14T13:55:03;6.25;;;2.10;;
4971;SDS011;2501;51.214;6.768;2023-06-14T13:57:32;2.47;;;2.00;;
4971;SDS011;2501;51.214;6.768;2023-06-14T14:00:01;9.77;;;2.42;;
4971;SDS011;2501;51.214;6.768;2023-06-14T14:02:29;3.25;;;1.90;;
4971;SDS011;2501;51.214;6.768;2023-06-14T14:05:00;4.67;;;2.20;;
4971;SDS011;2501;51.214;6.768;2023-06-14T14:07:29;3.42;;;2.33;;
4971;SDS011;2501;51.214;6.768;2023-06-14T14:09:57;4.30;;;2.22;;
4971;SDS011;2501;51.214;6.768;2023-06-14T14:12:26;2.60;;;2.40;;
4971;SDS011;2501;51.214;6.768;2023-06-14T14:14:54;5.22;;;2.10;;
4971;SDS011;2501;51.214;6.768;2023-06-14T14:17:22;8.27;;;2.85;;
4971;SDS011;2501;51.214;6.768;2023-06-14T14:19:51;3.40;;;2.30;;
4971;SDS011;2501;51.214;6.768;2023-06-14T14:22:22;3.20;;;2.08;;
4971;SDS011;2501;51.214;6.768;2023-06-14T14:24:51;2.38;;;2.22;;
4971;SDS011;2501;51.214;6.768;2023-06-14T14:27:19;5.50;;;2.50;;
4971;SDS011;2501;51.214;6.768;2023-06-14T14:29:48;5.30;;;2.28;;
4971;SDS011;2501;51.214;6.768;2023-06-14T14:32:16;3.60;;;2.30;;
4971;SDS011;2501;51.214;6.768;2023-06-14T14:34:45;2.33;;;2.13;;
4971;SDS011;2501;51.214;6.768;2023-06-14T14:37:13;5.72;;;2.40;;
4971;SDS011;2501;51.214;6.768;2023-06-14T14:39:45;4.50;;;2.20;;
4971;SDS011;2501;51.214;6.768;2023-06-14T14:42:13;5.60;;;2.22;;
4971;SDS011;2501;51.214;6.768;2023-06-14T14:44:43;4.57;;;2.25;;
4971;SDS011;2501;51.214;6.768;2023-06-14T14:47:12;7.80;;;2.37;;
4971;SDS011;2501;51.214;6.768;2023-06-14T14:49:40;2.20;;;2.10;;
4971;SDS011;2501;51.214;6.768;2023-06-14T14:52:09;4.32;;;1.90;;
4971;SDS011;2501;51.214;6.768;2023-06-14T14:54:38;5.10;;;2.22;;
4971;SDS011;2501;51.214;6.768;2023-06-14T14:57:09;2.67;;;2.37;;
4971;SDS011;2501;51.214;6.768;2023-06-14T14:59:38;4.40;;;2.80;;
4971;SDS011;2501;51.214;6.768;2023-06-14T15:02:06;7.60;;;2.58;;
4971;SDS011;2501;51.214;6.768;2023-06-14T15:04:35;4.03;;;2.50;;
4971;SDS011;2501;51.214;6.768;2023-06-14T15:07:03;3.90;;;2.70;;
4971;SDS011;2501;51.214;6.768;2023-06-14T15:09:32;10.70;;;2.42;;
4971;SDS011;2501;51.214;6.768;2023-06-14T15:12:00;2.57;;;2.30;;
4971;SDS011;2501;51.214;6.768;2023-06-14T15:14:32;2.90;;;2.22;;
4971;SDS011;2501;51.214;6.768;2023-06-14T15:17:00;6.13;;;2.90;;
4971;SDS011;2501;51.214;6.768;2023-06-14T15:19:29;3.50;;;2.60;;
4971;SDS011;2501;51.214;6.768;2023-06-14T15:21:59;2.75;;;2.53;;
4971;SDS011;2501;51.214;6.768;2023-06-14T15:24:27;13.03;;;2.47;;
4971;SDS011;2501;51.214;6.768;2023-06-14T15:26:56;2.60;;;2.40;;
4971;SDS011;2501;51.214;6.768;2023-06-14T15:29:24;3.50;;;2.30;;
4971;SDS011;2501;51.214;6.768;2023-06-14T15:31:55;8.77;;;2.70;;
4971;SDS011;2501;51.214;6.768;2023-06-14T15:34:23;4.22;;;2.47;;
4971;SDS011;2501;51.214;6.768;2023-06-14T15:36:52;4.07;;;2.22;;
4971;SDS011;2501;51.214;6.768;2023-06-14T15:39:21;15.82;;;2.15;;